createdAt,value
2017-12-05T00:01:25.168Z,16.03
2017-12-05T00:03:52.683Z,17.70
2017-12-05T00:06:20.354Z,19.03
2017-12-05T00:08:47.947Z,16.40
2017-12-05T00:11:15.481Z,18.77
2017-12-05T00:13:42.986Z,15.93
2017-12-05T00:16:10.533Z,18.70
2017-12-05T00:18:38.031Z,12.97
2017-12-05T00:21:06.294Z,20.70
2017-12-05T00:23:33.863Z,17.80
2017-12-05T00:26:01.637Z,18.77
2017-12-05T00:28:29.147Z,18.73
2017-12-05T00:30:56.693Z,14.00
2017-12-05T00:33:24.215Z,16.30
2017-12-05T00:35:52.490Z,19.77
2017-12-05T00:38:20.059Z,13.20
2017-12-05T00:40:47.558Z,16.03
2017-12-05T00:43:15.074Z,15.52
2017-12-05T00:45:44.066Z,15.37
2017-12-05T00:48:11.579Z,13.13
2017-12-05T00:50:39.103Z,23.00
2017-12-05T00:53:06.662Z,19.37
2017-12-05T00:55:34.175Z,19.23
2017-12-05T00:58:01.683Z,19.13
2017-12-05T01:00:29.230Z,17.53
2017-12-05T01:02:56.732Z,17.97
2017-12-05T01:05:25.530Z,22.87
2017-12-05T01:07:53.091Z,35.80
2017-12-05T01:10:21.240Z,26.07
2017-12-05T01:12:48.828Z,18.37
2017-12-05T01:15:16.387Z,22.20
2017-12-05T01:17:43.882Z,18.10
2017-12-05T01:20:11.382Z,16.13
2017-12-05T01:22:38.939Z,13.77
2017-12-05T01:25:06.963Z,14.80
2017-12-05T01:27:35.248Z,19.87
2017-12-05T01:30:03.666Z,16.07
2017-12-05T01:32:31.170Z,18.77
2017-12-05T01:34:58.715Z,19.87
2017-12-05T01:37:26.274Z,14.80
2017-12-05T01:39:53.811Z,19.83
2017-12-05T01:42:21.310Z,25.07
2017-12-05T01:44:49.202Z,14.87
2017-12-05T01:47:16.707Z,17.90
2017-12-05T01:49:44.234Z,16.20
2017-12-05T01:52:11.800Z,14.13
2017-12-05T01:54:39.303Z,15.87
2017-12-05T01:57:06.853Z,10.83
2017-12-05T01:59:34.411Z,13.00
2017-12-05T02:02:01.962Z,12.60
2017-12-05T02:04:30.243Z,12.20
2017-12-05T02:06:57.798Z,17.40
2017-12-05T02:09:25.328Z,14.10
2017-12-05T02:11:53.276Z,17.20
2017-12-05T02:14:20.827Z,14.50
2017-12-05T02:16:49.433Z,17.93
2017-12-05T02:19:16.961Z,12.70
2017-12-05T02:21:44.508Z,15.60
2017-12-05T02:24:12.014Z,19.40
2017-12-05T02:26:39.539Z,15.77
2017-12-05T02:29:07.241Z,15.53
2017-12-05T02:31:34.778Z,20.20
2017-12-05T02:34:02.292Z,18.00
2017-12-05T02:36:29.959Z,15.83
2017-12-05T02:38:57.475Z,16.73
2017-12-05T02:41:24.977Z,19.97
2017-12-05T02:43:52.533Z,16.03
2017-12-05T02:46:20.118Z,17.37
2017-12-05T02:48:47.623Z,18.17
2017-12-05T02:51:15.200Z,18.40
2017-12-05T02:53:42.720Z,25.70
2017-12-05T02:56:10.268Z,21.07
2017-12-05T02:58:38.593Z,20.37
2017-12-05T03:01:06.086Z,21.83
2017-12-05T03:03:33.599Z,18.17
2017-12-05T03:06:01.247Z,18.57
2017-12-05T03:08:28.771Z,18.13
2017-12-05T03:10:56.880Z,13.50
2017-12-05T03:13:24.724Z,15.30
2017-12-05T03:15:52.251Z,19.73
2017-12-05T03:18:20.787Z,21.80
2017-12-05T03:20:48.835Z,18.83
2017-12-05T03:23:16.363Z,26.03
2017-12-05T03:25:43.891Z,19.87
2017-12-05T03:28:11.447Z,16.73
2017-12-05T03:30:38.948Z,16.97
2017-12-05T03:33:06.450Z,18.67
2017-12-05T03:35:34.099Z,15.43
2017-12-05T03:38:01.669Z,14.20
2017-12-05T03:40:29.170Z,14.40
2017-12-05T03:42:56.706Z,15.37
2017-12-05T03:45:24.213Z,23.30
2017-12-05T03:47:52.099Z,14.30
2017-12-05T03:50:20.182Z,17.63
2017-12-05T03:52:47.691Z,19.17
2017-12-05T03:55:15.251Z,14.70
2017-12-05T03:57:42.835Z,13.63
2017-12-05T04:00:10.899Z,14.43
2017-12-05T04:02:39.196Z,13.73
2017-12-05T04:05:07.351Z,18.03
2017-12-05T04:07:34.854Z,26.73
2017-12-05T04:10:02.351Z,12.97
2017-12-05T04:12:29.907Z,13.40
2017-12-05T04:14:57.411Z,14.63
2017-12-05T04:17:24.931Z,16.83
2017-12-05T04:19:53.255Z,18.27
2017-12-05T04:22:20.759Z,27.40
2017-12-05T04:24:48.310Z,20.98
2017-12-05T04:27:15.864Z,16.57
2017-12-05T04:29:43.370Z,15.27
2017-12-05T04:32:10.883Z,20.70
2017-12-05T04:34:38.460Z,18.65
2017-12-05T04:37:06.004Z,17.67
2017-12-05T04:39:33.519Z,18.03
2017-12-05T04:42:01.203Z,24.58
2017-12-05T04:44:28.711Z,26.03
2017-12-05T04:46:56.234Z,18.05
2017-12-05T04:49:24.134Z,22.45
2017-12-05T04:51:51.630Z,23.83
2017-12-05T04:54:19.458Z,18.53
2017-12-05T04:56:47.027Z,18.80
2017-12-05T04:59:14.536Z,18.90
2017-12-05T05:01:42.058Z,26.95
2017-12-05T05:04:09.626Z,24.00
2017-12-05T05:06:37.139Z,25.07
2017-12-05T05:09:04.642Z,25.95
2017-12-05T05:11:32.208Z,28.02
2017-12-05T05:13:59.760Z,25.70
2017-12-05T05:16:27.879Z,23.10
2017-12-05T05:18:55.438Z,27.80
2017-12-05T05:21:23.654Z,32.75
2017-12-05T05:23:51.175Z,29.63
2017-12-05T05:26:18.738Z,32.97
2017-12-05T05:28:46.256Z,28.70
2017-12-05T05:31:13.772Z,27.20
2017-12-05T05:33:42.103Z,36.17
2017-12-05T05:36:09.618Z,41.75
2017-12-05T05:38:37.130Z,32.67
2017-12-05T05:41:04.798Z,33.90
2017-12-05T05:43:32.306Z,25.83
2017-12-05T05:45:59.838Z,28.00
2017-12-05T05:48:28.653Z,30.70
2017-12-05T05:50:56.206Z,29.30
2017-12-05T05:53:23.723Z,25.48
2017-12-05T05:55:51.374Z,38.40
2017-12-05T05:58:18.887Z,42.47
2017-12-05T06:00:46.394Z,48.20
2017-12-05T06:03:13.955Z,43.75
2017-12-05T06:05:41.568Z,51.50
2017-12-05T06:08:09.095Z,43.35
2017-12-05T06:10:36.663Z,31.00
2017-12-05T06:13:04.185Z,41.25
2017-12-05T06:15:31.710Z,30.10
2017-12-05T06:17:59.370Z,30.63
2017-12-05T06:20:26.887Z,29.90
2017-12-05T06:22:54.412Z,36.53
2017-12-05T06:25:21.963Z,33.27
2017-12-05T06:27:49.475Z,33.65
2017-12-05T06:30:17.013Z,39.00
2017-12-05T06:32:44.580Z,38.33
2017-12-05T06:35:12.104Z,43.93
2017-12-05T06:37:39.647Z,46.03
2017-12-05T06:40:07.238Z,31.73
2017-12-05T06:42:34.919Z,37.07
2017-12-05T06:45:02.455Z,41.80
2017-12-05T06:47:30.234Z,41.87
2017-12-05T06:49:57.749Z,34.47
2017-12-05T06:52:25.277Z,52.23
2017-12-05T06:54:54.467Z,45.27
2017-12-05T06:57:21.991Z,35.47
2017-12-05T06:59:49.504Z,37.07
2017-12-05T07:02:17.210Z,29.03
2017-12-05T07:04:44.719Z,46.37
2017-12-05T07:07:12.240Z,34.55
2017-12-05T07:09:39.836Z,43.25
2017-12-05T07:12:08.127Z,42.30
2017-12-05T07:14:36.419Z,38.17
2017-12-05T07:17:03.972Z,30.88
2017-12-05T07:19:31.487Z,33.75
2017-12-05T07:21:59.223Z,34.27
2017-12-05T07:24:26.734Z,28.50
2017-12-05T07:26:54.258Z,26.37
2017-12-05T07:29:21.851Z,32.03
2017-12-05T07:31:49.363Z,31.53
2017-12-05T07:34:16.924Z,32.70
2017-12-05T07:36:44.523Z,23.10
2017-12-05T07:39:12.486Z,27.20
2017-12-05T07:41:39.990Z,21.90
2017-12-05T07:44:07.590Z,28.17
2017-12-05T07:46:35.090Z,23.93
2017-12-05T07:49:02.600Z,24.40
2017-12-05T07:51:30.134Z,25.97
2017-12-05T07:53:57.638Z,25.77
2017-12-05T07:56:25.198Z,24.20
2017-12-05T07:58:52.763Z,21.97
2017-12-05T08:01:21.214Z,26.40
2017-12-05T08:03:48.721Z,24.90
2017-12-05T08:06:16.414Z,26.63
2017-12-05T08:08:43.930Z,28.07
2017-12-05T08:11:11.434Z,32.77
2017-12-05T08:13:39.454Z,21.43
2017-12-05T08:16:07.150Z,23.23
2017-12-05T08:18:35.538Z,22.13
2017-12-05T08:21:03.535Z,25.87
2017-12-05T08:23:31.338Z,25.50
2017-12-05T08:25:58.890Z,32.30
2017-12-05T08:28:26.399Z,23.23
2017-12-05T08:30:53.908Z,21.97
2017-12-05T08:33:21.470Z,28.23
2017-12-05T08:35:48.970Z,20.83
2017-12-05T08:38:16.923Z,38.77
2017-12-05T08:40:44.491Z,21.13
2017-12-05T08:43:12.006Z,28.27
2017-12-05T08:45:39.514Z,32.23
2017-12-05T08:48:07.171Z,31.07
2017-12-05T08:50:35.434Z,28.70
2017-12-05T08:53:03.735Z,22.77
2017-12-05T08:55:32.055Z,22.80
2017-12-05T08:57:59.558Z,29.83
2017-12-05T09:00:27.058Z,21.27
2017-12-05T09:02:55.087Z,23.93
2017-12-05T09:05:23.531Z,24.13
2017-12-05T09:07:52.634Z,22.10
2017-12-05T09:10:20.138Z,18.17
2017-12-05T09:12:47.695Z,26.97
2017-12-05T09:15:15.210Z,20.20
2017-12-05T09:17:42.710Z,26.83
2017-12-05T09:20:10.287Z,21.00
2017-12-05T09:22:37.790Z,23.10
2017-12-05T09:25:05.455Z,29.00
2017-12-05T09:27:33.098Z,19.73
2017-12-05T09:30:01.707Z,22.83
2017-12-05T09:32:29.223Z,20.20
2017-12-05T09:34:56.823Z,21.40
2017-12-05T09:37:25.109Z,21.00
2017-12-05T09:39:52.611Z,19.43
2017-12-05T09:42:20.170Z,16.63
2017-12-05T09:44:47.975Z,17.30
2017-12-05T09:47:15.487Z,19.20
2017-12-05T09:49:43.059Z,22.50
2017-12-05T09:52:10.567Z,25.00
2017-12-05T09:54:38.087Z,14.87
2017-12-05T09:57:06.090Z,22.80
2017-12-05T09:59:33.635Z,14.50
2017-12-05T10:02:01.656Z,25.03
2017-12-05T10:04:29.206Z,25.33
2017-12-05T10:06:57.335Z,20.67
2017-12-05T10:09:26.370Z,23.90
2017-12-05T10:11:53.922Z,17.20
2017-12-05T10:14:21.456Z,16.20
2017-12-05T10:16:48.954Z,20.40
2017-12-05T10:19:17.122Z,19.53
2017-12-05T10:21:44.647Z,20.70
2017-12-05T10:24:12.153Z,15.00
2017-12-05T10:26:39.707Z,17.33
2017-12-05T10:29:07.234Z,20.47
2017-12-05T10:31:35.509Z,17.73
2017-12-05T10:34:03.831Z,21.70
2017-12-05T10:36:31.330Z,18.30
2017-12-05T10:38:58.845Z,20.43
2017-12-05T10:41:26.406Z,15.77
2017-12-05T10:43:53.904Z,17.47
2017-12-05T10:46:21.412Z,20.97
2017-12-05T10:48:48.974Z,18.90
2017-12-05T10:51:16.531Z,18.63
2017-12-05T10:53:44.042Z,18.03
2017-12-05T10:56:12.002Z,18.33
2017-12-05T10:58:39.835Z,19.60
2017-12-05T11:01:07.399Z,18.43
2017-12-05T11:03:34.959Z,22.53
2017-12-05T11:06:02.463Z,17.43
2017-12-05T11:08:29.969Z,15.40
2017-12-05T11:10:57.514Z,20.43
2017-12-05T11:13:25.278Z,19.83
2017-12-05T11:15:52.802Z,14.80
2017-12-05T11:18:20.523Z,19.10
2017-12-05T11:20:48.563Z,17.90
2017-12-05T11:23:16.487Z,17.97
2017-12-05T11:25:44.058Z,18.30
2017-12-05T11:28:11.730Z,16.50
2017-12-05T11:30:39.498Z,18.63
2017-12-05T11:33:07.075Z,15.77
2017-12-05T11:35:35.435Z,15.77
2017-12-05T11:38:02.926Z,11.30
2017-12-05T11:40:30.422Z,12.63
2017-12-05T11:42:57.963Z,11.60
2017-12-05T11:45:25.460Z,11.63
2017-12-05T11:47:52.959Z,10.07
2017-12-05T11:50:20.515Z,11.83
2017-12-05T11:52:48.006Z,9.47
2017-12-05T11:55:16.146Z,13.70
2017-12-05T11:57:43.695Z,15.90
2017-12-05T12:00:11.204Z,10.23
2017-12-05T12:02:38.710Z,10.30
2017-12-05T12:05:06.286Z,13.90
2017-12-05T12:07:35.226Z,12.13
2017-12-05T12:10:02.730Z,12.70
2017-12-05T12:12:30.279Z,15.30
2017-12-05T12:14:58.615Z,12.97
2017-12-05T12:17:26.401Z,12.57
2017-12-05T12:19:54.345Z,13.33
2017-12-05T12:22:21.838Z,15.83
2017-12-05T12:24:49.338Z,15.30
2017-12-05T12:27:16.903Z,17.13
2017-12-05T12:29:44.419Z,11.93
2017-12-05T12:32:11.923Z,13.20
2017-12-05T12:34:39.479Z,15.00
2017-12-05T12:37:07.079Z,12.60
2017-12-05T12:39:35.354Z,9.67
2017-12-05T12:42:03.174Z,15.93
2017-12-05T12:44:30.670Z,19.43
2017-12-05T12:46:58.171Z,18.43
2017-12-05T12:49:25.881Z,15.43
2017-12-05T12:51:53.588Z,15.03
2017-12-05T12:54:21.114Z,14.43
2017-12-05T12:56:48.672Z,13.07
2017-12-05T12:59:16.817Z,16.90
2017-12-05T13:01:44.316Z,16.40
2017-12-05T13:04:11.876Z,14.33
2017-12-05T13:06:39.379Z,15.90
2017-12-05T13:09:07.444Z,13.87
2017-12-05T13:11:35.015Z,14.27
2017-12-05T13:14:03.037Z,11.80
2017-12-05T13:16:30.643Z,13.30
2017-12-05T13:18:58.459Z,17.23
2017-12-05T13:21:26.585Z,12.67
2017-12-05T13:23:54.271Z,13.00
2017-12-05T13:26:22.311Z,14.00
2017-12-05T13:28:50.363Z,14.47
2017-12-05T13:31:17.876Z,14.10
2017-12-05T13:33:45.383Z,20.67
2017-12-05T13:36:12.939Z,16.07
2017-12-05T13:38:40.459Z,12.30
2017-12-05T13:41:07.964Z,14.90
2017-12-05T13:43:35.515Z,20.30
2017-12-05T13:46:03.014Z,20.50
2017-12-05T13:48:30.590Z,22.97
2017-12-05T13:50:58.102Z,14.47
2017-12-05T13:53:25.694Z,20.27
2017-12-05T13:55:53.222Z,16.90
2017-12-05T13:58:20.730Z,22.20
2017-12-05T14:00:48.343Z,19.73
2017-12-05T14:03:15.876Z,18.37
2017-12-05T14:05:43.383Z,20.73
2017-12-05T14:08:10.951Z,22.07
2017-12-05T14:10:38.459Z,19.80
2017-12-05T14:13:05.963Z,21.50
2017-12-05T14:15:33.531Z,20.90
2017-12-05T14:18:01.034Z,26.43
2017-12-05T14:20:29.315Z,20.00
2017-12-05T14:22:57.218Z,17.80
2017-12-05T14:25:24.822Z,16.63
2017-12-05T14:27:52.332Z,14.63
2017-12-05T14:30:19.874Z,12.90
2017-12-05T14:32:47.380Z,18.03
2017-12-05T14:35:14.883Z,20.50
2017-12-05T14:37:42.456Z,17.63
2017-12-05T14:40:09.958Z,17.17
2017-12-05T14:42:37.459Z,14.40
2017-12-05T14:45:06.399Z,15.30
2017-12-05T14:47:34.109Z,15.80
2017-12-05T14:50:01.578Z,14.00
2017-12-05T14:52:29.107Z,14.60
2017-12-05T14:54:57.383Z,23.37
2017-12-05T14:57:24.915Z,22.73
2017-12-05T14:59:52.495Z,12.00
2017-12-05T15:02:20.007Z,18.33
2017-12-05T15:04:47.511Z,14.57
2017-12-05T15:07:15.106Z,19.33
2017-12-05T15:09:42.616Z,17.00
2017-12-05T15:12:10.118Z,17.70
2017-12-05T15:14:38.214Z,15.20
2017-12-05T15:17:05.739Z,17.50
2017-12-05T15:19:33.242Z,18.90
2017-12-05T15:22:00.783Z,16.97
2017-12-05T15:24:28.284Z,15.80
2017-12-05T15:26:55.799Z,14.20
2017-12-05T15:29:23.352Z,15.30
2017-12-05T15:31:50.858Z,13.47
2017-12-05T15:34:19.284Z,14.90
2017-12-05T15:36:46.819Z,13.67
2017-12-05T15:39:14.327Z,16.60
2017-12-05T15:41:41.994Z,23.70
2017-12-05T15:44:09.500Z,18.43
2017-12-05T15:46:37.335Z,15.50
2017-12-05T15:49:05.948Z,14.60
2017-12-05T15:51:33.935Z,18.67
2017-12-05T15:54:02.140Z,17.57
2017-12-05T15:56:29.648Z,19.30
2017-12-05T15:58:57.219Z,19.53
2017-12-05T16:01:25.363Z,16.87
2017-12-05T16:03:53.639Z,22.00
2017-12-05T16:06:21.714Z,19.50
2017-12-05T16:08:49.226Z,16.97
2017-12-05T16:11:16.871Z,14.70
2017-12-05T16:13:44.424Z,17.77
2017-12-05T16:16:12.886Z,17.53
2017-12-05T16:18:40.398Z,17.67
2017-12-05T16:21:07.914Z,16.73
2017-12-05T16:23:36.045Z,16.60
2017-12-05T16:26:04.345Z,16.60
2017-12-05T16:28:32.304Z,20.03
2017-12-05T16:31:00.595Z,22.50
2017-12-05T16:33:28.106Z,17.83
2017-12-05T16:35:55.602Z,15.70
2017-12-05T16:38:23.855Z,17.67
2017-12-05T16:40:51.363Z,19.10
2017-12-05T16:43:18.868Z,20.37
2017-12-05T16:45:46.408Z,17.37
2017-12-05T16:48:14.636Z,17.40
2017-12-05T16:50:42.205Z,16.17
2017-12-05T16:53:09.779Z,17.53
2017-12-05T16:55:37.356Z,15.77
2017-12-05T16:58:04.920Z,17.60
2017-12-05T17:00:32.500Z,20.80
2017-12-05T17:03:00.835Z,31.00
2017-12-05T17:05:28.355Z,20.57
2017-12-05T17:07:55.858Z,23.60
2017-12-05T17:10:23.904Z,21.10
2017-12-05T17:12:51.442Z,20.73
2017-12-05T17:15:19.721Z,27.13
2017-12-05T17:17:47.267Z,23.80
2017-12-05T17:20:14.890Z,21.87
2017-12-05T17:22:42.422Z,22.07
2017-12-05T17:25:09.994Z,18.60
2017-12-05T17:27:37.504Z,20.97
2017-12-05T17:30:05.014Z,19.50
2017-12-05T17:32:32.658Z,20.93
2017-12-05T17:35:00.168Z,19.43
2017-12-05T17:37:27.695Z,21.60
2017-12-05T17:39:55.367Z,20.83
2017-12-05T17:42:22.936Z,14.80
2017-12-05T17:44:50.451Z,21.10
2017-12-05T17:47:18.251Z,21.23
2017-12-05T17:49:46.532Z,24.50
2017-12-05T17:52:14.826Z,23.40
2017-12-05T17:54:42.382Z,21.87
2017-12-05T17:57:09.891Z,26.77
2017-12-05T17:59:37.399Z,25.03
2017-12-05T18:02:05.003Z,31.67
2017-12-05T18:04:32.784Z,23.50
2017-12-05T18:07:00.299Z,29.90
2017-12-05T18:09:27.875Z,26.03
2017-12-05T18:11:55.399Z,31.37
2017-12-05T18:14:22.910Z,27.40
2017-12-05T18:16:51.027Z,27.27
2017-12-05T18:19:20.062Z,29.43
2017-12-05T18:21:47.615Z,29.83
2017-12-05T18:24:15.919Z,24.87
2017-12-05T18:26:43.440Z,28.50
2017-12-05T18:29:10.952Z,23.97
2017-12-05T18:31:39.036Z,28.63
2017-12-05T18:34:07.455Z,36.20
2017-12-05T18:36:34.996Z,23.87
2017-12-05T18:39:02.512Z,24.77
2017-12-05T18:41:30.886Z,24.87
2017-12-05T18:43:58.682Z,33.30
2017-12-05T18:46:26.254Z,24.83
2017-12-05T18:48:54.771Z,23.10
2017-12-05T18:51:22.503Z,31.93
2017-12-05T18:53:49.980Z,26.23
2017-12-05T18:56:17.579Z,24.73
2017-12-05T18:58:45.192Z,25.80
2017-12-05T19:01:12.712Z,25.93
2017-12-05T19:03:40.267Z,26.43
2017-12-05T19:06:07.916Z,26.27
2017-12-05T19:08:35.427Z,26.27
2017-12-05T19:11:03.553Z,21.10
2017-12-05T19:13:31.072Z,25.23
2017-12-05T19:15:58.578Z,26.20
2017-12-05T19:18:26.338Z,24.70
2017-12-05T19:20:54.163Z,23.33
2017-12-05T19:23:21.703Z,29.43
2017-12-05T19:25:49.283Z,25.77
2017-12-05T19:28:16.791Z,22.53
2017-12-05T19:30:44.338Z,24.70
2017-12-05T19:33:12.150Z,28.13
2017-12-05T19:35:39.656Z,26.27
2017-12-05T19:38:07.159Z,27.87
2017-12-05T19:40:35.478Z,26.67
2017-12-05T19:43:03.010Z,26.10
2017-12-05T19:45:30.526Z,25.60
2017-12-05T19:47:58.099Z,23.27
2017-12-05T19:50:25.606Z,30.23
2017-12-05T19:52:53.495Z,28.73
2017-12-05T19:55:21.092Z,22.93
2017-12-05T19:57:48.616Z,21.27
2017-12-05T20:00:16.135Z,26.73
2017-12-05T20:02:43.701Z,25.83
2017-12-05T20:05:11.218Z,25.37
2017-12-05T20:07:39.781Z,21.47
2017-12-05T20:10:07.326Z,28.10
2017-12-05T20:12:34.850Z,26.03
2017-12-05T20:15:02.363Z,34.13
2017-12-05T20:17:29.914Z,26.17
2017-12-05T20:19:57.900Z,25.50
2017-12-05T20:22:25.426Z,24.50
2017-12-05T20:24:53.051Z,24.40
2017-12-05T20:27:20.708Z,27.03
2017-12-05T20:29:48.542Z,18.20
2017-12-05T20:32:16.125Z,20.60
2017-12-05T20:34:45.084Z,26.60
2017-12-05T20:37:13.442Z,18.67
2017-12-05T20:39:41.772Z,22.07
2017-12-05T20:42:10.107Z,20.03
2017-12-05T20:44:37.643Z,17.83
2017-12-05T20:47:05.642Z,18.40
2017-12-05T20:49:33.216Z,20.47
2017-12-05T20:52:01.408Z,21.20
2017-12-05T20:54:30.136Z,18.27
2017-12-05T20:56:57.643Z,18.23
2017-12-05T20:59:25.146Z,20.23
2017-12-05T21:01:52.701Z,21.20
2017-12-05T21:04:20.499Z,22.70
2017-12-05T21:06:48.010Z,23.70
2017-12-05T21:09:15.567Z,20.23
2017-12-05T21:11:43.919Z,22.00
2017-12-05T21:14:11.424Z,23.80
2017-12-05T21:16:38.928Z,22.50
2017-12-05T21:19:06.498Z,21.13
2017-12-05T21:21:34.607Z,19.57
2017-12-05T21:24:02.123Z,21.93
2017-12-05T21:26:29.663Z,20.97
2017-12-05T21:28:57.181Z,20.40
2017-12-05T21:31:24.699Z,18.40
2017-12-05T21:33:52.423Z,20.77
2017-12-05T21:36:20.154Z,24.13
2017-12-05T21:38:47.706Z,22.30
2017-12-05T21:41:15.278Z,22.07
2017-12-05T21:43:42.791Z,22.00
2017-12-05T21:46:10.291Z,25.73
2017-12-05T21:48:38.636Z,24.33
2017-12-05T21:51:07.058Z,26.10
2017-12-05T21:53:35.122Z,26.57
2017-12-05T21:56:02.834Z,21.07
2017-12-05T21:58:31.223Z,25.03
2017-12-05T22:00:59.371Z,20.03
2017-12-05T22:03:26.887Z,23.93
2017-12-05T22:05:55.272Z,23.60
2017-12-05T22:08:23.382Z,25.20
2017-12-05T22:10:50.895Z,25.73
2017-12-05T22:13:18.443Z,23.50
2017-12-05T22:15:46.603Z,23.80
2017-12-05T22:18:14.889Z,27.60
2017-12-05T22:20:42.615Z,29.50
2017-12-05T22:23:10.611Z,27.10
2017-12-05T22:25:38.114Z,28.93
2017-12-05T22:28:05.639Z,25.73
2017-12-05T22:30:33.363Z,24.57
2017-12-05T22:33:00.882Z,27.42
2017-12-05T22:35:28.386Z,24.57
2017-12-05T22:37:56.449Z,24.10
2017-12-05T22:40:23.955Z,22.50
2017-12-05T22:42:51.463Z,19.97
2017-12-05T22:45:19.031Z,22.93
2017-12-05T22:47:46.542Z,23.67
2017-12-05T22:50:14.132Z,18.33
2017-12-05T22:52:43.476Z,22.27
2017-12-05T22:55:12.931Z,26.07
2017-12-05T22:57:40.541Z,18.90
2017-12-05T23:00:08.454Z,22.67
2017-12-05T23:02:36.122Z,23.27
2017-12-05T23:05:03.871Z,17.53
2017-12-05T23:07:33.004Z,22.47
2017-12-05T23:10:00.806Z,24.17
2017-12-05T23:12:28.311Z,20.23
2017-12-05T23:14:55.831Z,17.30
2017-12-05T23:17:23.510Z,20.23
2017-12-05T23:19:51.027Z,19.17
2017-12-05T23:22:18.555Z,18.80
2017-12-05T23:24:46.147Z,19.77
2017-12-05T23:27:14.326Z,22.60
2017-12-05T23:29:41.895Z,20.57
2017-12-05T23:32:09.404Z,18.93
2017-12-05T23:34:36.952Z,18.50
2017-12-05T23:37:04.494Z,19.35
2017-12-05T23:39:32.763Z,20.70
2017-12-05T23:42:01.195Z,20.20
2017-12-05T23:44:28.715Z,19.23
2017-12-05T23:46:56.218Z,19.60
2017-12-05T23:49:23.838Z,18.10
2017-12-05T23:51:52.438Z,22.33
2017-12-05T23:54:19.944Z,15.80
2017-12-05T23:56:47.491Z,18.50
2017-12-05T23:59:15.014Z,21.87
